createdAt,value
2023-12-12T00:01:33.615Z,10.07
2023-12-12T00:04:35.733Z,8.23
2023-12-12T00:07:38.159Z,7.30
2023-12-12T00:10:40.329Z,6.60
2023-12-12T00:13:42.684Z,6.23
2023-12-12T00:16:44.651Z,5.17
2023-12-12T00:19:47.054Z,5.70
2023-12-12T00:22:49.120Z,4.97
2023-12-12T00:25:51.356Z,5.00
2023-12-12T00:28:53.398Z,5.20
2023-12-12T00:31:55.686Z,4.37
2023-12-12T00:35:01.242Z,4.50
2023-12-12T00:38:03.526Z,4.10
2023-12-12T00:41:05.697Z,4.10
2023-12-12T00:44:11.047Z,5.03
2023-12-12T00:47:13.073Z,4.57
2023-12-12T00:50:15.415Z,3.53
2023-12-12T00:53:17.452Z,3.53
2023-12-12T00:56:19.726Z,2.73
2023-12-12T00:59:21.681Z,2.60
2023-12-12T01:02:25.045Z,1.70
2023-12-12T01:05:27.402Z,1.80
2023-12-12T01:08:29.786Z,1.60
2023-12-12T01:11:31.830Z,1.17
2023-12-12T01:14:34.100Z,1.77
2023-12-12T01:17:36.450Z,1.00
2023-12-12T01:20:38.867Z,1.00
2023-12-12T01:23:56.333Z,1.20
2023-12-12T01:26:58.637Z,0.77
2023-12-12T01:30:00.685Z,1.50
2023-12-12T01:33:02.985Z,0.70
2023-12-12T01:36:05.494Z,1.30
2023-12-12T01:39:07.766Z,1.00
2023-12-12T01:42:09.963Z,2.03
2023-12-12T01:45:12.260Z,1.30
2023-12-12T01:48:14.466Z,1.33
2023-12-12T01:51:17.705Z,0.97
2023-12-12T01:54:19.827Z,2.00
2023-12-12T01:57:22.980Z,1.17
2023-12-12T02:00:25.023Z,1.07
2023-12-12T02:03:29.881Z,1.33
2023-12-12T02:06:31.994Z,2.27
2023-12-12T02:09:34.663Z,0.83
2023-12-12T02:12:36.674Z,0.90
2023-12-12T02:15:39.151Z,0.60
2023-12-12T02:18:41.420Z,0.70
2023-12-12T02:21:43.795Z,0.90
2023-12-12T02:24:45.841Z,1.10
2023-12-12T02:27:48.586Z,1.27
2023-12-12T02:30:51.394Z,0.93
2023-12-12T02:33:53.867Z,1.00
2023-12-12T02:36:55.950Z,1.33
2023-12-12T02:39:58.306Z,1.17
2023-12-12T02:43:00.485Z,1.27
2023-12-12T02:46:04.099Z,0.70
2023-12-12T02:49:07.123Z,0.63
2023-12-12T02:52:09.914Z,1.00
2023-12-12T02:55:12.131Z,0.80
2023-12-12T02:58:14.495Z,0.70
2023-12-12T03:01:16.675Z,0.60
2023-12-12T03:04:19.214Z,0.60
2023-12-12T03:07:21.345Z,0.50
2023-12-12T03:10:23.782Z,0.50
2023-12-12T03:13:25.886Z,0.50
2023-12-12T03:16:28.357Z,0.40
2023-12-12T03:19:30.628Z,1.53
2023-12-12T03:22:33.065Z,0.20
2023-12-12T03:25:35.150Z,0.30
2023-12-12T03:28:37.600Z,0.30
2023-12-12T03:31:42.365Z,0.27
2023-12-12T03:34:44.733Z,0.37
2023-12-12T03:37:46.836Z,0.40
2023-12-12T03:40:49.461Z,0.40
2023-12-12T03:43:54.207Z,0.30
2023-12-12T03:46:56.642Z,0.30
2023-12-12T03:49:58.876Z,0.40
2023-12-12T03:53:01.420Z,0.40
2023-12-12T03:56:04.539Z,0.40
2023-12-12T03:59:06.875Z,0.30
2023-12-12T04:02:08.974Z,0.47
2023-12-12T04:05:11.424Z,0.47
2023-12-12T04:08:13.526Z,0.30
2023-12-12T04:11:15.803Z,0.40
2023-12-12T04:14:17.818Z,0.30
2023-12-12T04:17:20.354Z,3.90
2023-12-12T04:20:22.467Z,0.30
2023-12-12T04:23:24.832Z,0.87
2023-12-12T04:26:30.739Z,0.60
2023-12-12T04:29:33.037Z,0.60
2023-12-12T04:32:35.561Z,0.30
2023-12-12T04:35:39.488Z,0.43
2023-12-12T04:38:41.658Z,1.13
2023-12-12T04:41:45.212Z,0.80
2023-12-12T04:44:47.348Z,0.87
2023-12-12T04:47:49.934Z,0.83
2023-12-12T04:50:52.124Z,0.83
2023-12-12T04:53:54.417Z,1.80
2023-12-12T04:56:56.649Z,1.30
2023-12-12T04:59:59.027Z,0.80
2023-12-12T05:03:01.617Z,1.03
2023-12-12T05:06:04.617Z,0.90
2023-12-12T05:09:06.690Z,1.20
2023-12-12T05:12:09.403Z,1.43
2023-12-12T05:15:11.520Z,1.10
2023-12-12T05:18:14.044Z,1.50
2023-12-12T05:21:16.279Z,1.33
2023-12-12T05:24:19.492Z,1.53
2023-12-12T05:27:21.918Z,1.73
2023-12-12T05:30:24.356Z,2.10
2023-12-12T05:33:26.588Z,2.30
2023-12-12T05:36:29.217Z,2.33
2023-12-12T05:39:31.317Z,2.03
2023-12-12T05:42:34.469Z,2.87
2023-12-12T05:45:36.672Z,2.50
2023-12-12T05:48:39.084Z,3.03
2023-12-12T05:51:41.432Z,3.03
2023-12-12T05:54:44.219Z,2.80
2023-12-12T05:57:46.278Z,3.10
2023-12-12T06:00:48.722Z,3.63
2023-12-12T06:03:50.859Z,3.63
2023-12-12T06:06:53.538Z,3.27
2023-12-12T06:09:55.737Z,4.87
2023-12-12T06:12:58.881Z,3.30
2023-12-12T06:16:00.978Z,3.47
2023-12-12T06:19:07.083Z,3.80
2023-12-12T06:22:09.572Z,3.43
2023-12-12T06:25:12.134Z,3.83
2023-12-12T06:28:14.276Z,3.10
2023-12-12T06:31:16.828Z,3.60
2023-12-12T06:34:19.178Z,3.70
2023-12-12T06:37:21.615Z,3.37
2023-12-12T06:40:23.849Z,3.30
2023-12-12T06:43:26.247Z,3.27
2023-12-12T06:46:28.373Z,3.40
2023-12-12T06:49:30.935Z,3.47
2023-12-12T06:52:36.490Z,3.50
2023-12-12T06:55:39.388Z,3.50
2023-12-12T06:58:41.582Z,4.43
2023-12-12T07:01:44.362Z,2.93
2023-12-12T07:04:46.472Z,3.43
2023-12-12T07:07:49.043Z,3.77
2023-12-12T07:10:51.894Z,3.97
2023-12-12T07:13:54.425Z,4.00
2023-12-12T07:16:56.484Z,4.30
2023-12-12T07:19:58.852Z,4.70
2023-12-12T07:23:01.010Z,4.10
2023-12-12T07:26:03.963Z,4.23
2023-12-12T07:29:06.504Z,4.03
2023-12-12T07:32:08.842Z,4.13
2023-12-12T07:35:10.922Z,4.30
2023-12-12T07:38:13.333Z,4.27
2023-12-12T07:41:16.504Z,3.97
2023-12-12T07:44:18.882Z,4.00
2023-12-12T07:47:28.646Z,3.90
2023-12-12T07:50:33.891Z,4.40
2023-12-12T07:53:36.589Z,4.33
2023-12-12T07:56:38.917Z,4.33
2023-12-12T07:59:41.904Z,4.90
2023-12-12T08:02:44.246Z,7.13
2023-12-12T08:05:46.366Z,4.57
2023-12-12T08:08:49.215Z,5.07
2023-12-12T08:11:51.640Z,4.40
2023-12-12T08:14:56.921Z,4.80
2023-12-12T08:17:59.023Z,5.53
2023-12-12T08:21:01.461Z,4.80
2023-12-12T08:24:04.402Z,4.73
2023-12-12T08:27:07.314Z,4.93
2023-12-12T08:30:09.982Z,4.77
2023-12-12T08:33:13.249Z,5.27
2023-12-12T08:36:15.370Z,5.10
2023-12-12T08:39:17.739Z,5.63
2023-12-12T08:42:20.333Z,5.63
2023-12-12T08:45:23.770Z,12.53
2023-12-12T08:48:25.974Z,6.83
2023-12-12T08:51:28.395Z,49.17
2023-12-12T08:54:30.426Z,12.43
2023-12-12T08:57:33.101Z,17.13
2023-12-12T09:00:35.324Z,5.20
2023-12-12T09:03:37.800Z,9.87
2023-12-12T09:06:40.001Z,14.23
2023-12-12T09:09:42.822Z,10.27
2023-12-12T09:12:44.925Z,12.67
2023-12-12T09:15:47.258Z,9.70
2023-12-12T09:18:49.356Z,8.20
2023-12-12T09:21:52.279Z,6.50
2023-12-12T09:24:55.643Z,7.27
2023-12-12T09:27:58.064Z,8.97
2023-12-12T09:31:00.259Z,11.43
2023-12-12T09:34:02.740Z,18.83
2023-12-12T09:37:04.996Z,11.60
2023-12-12T09:40:08.173Z,7.30
2023-12-12T09:43:12.828Z,8.43
2023-12-12T09:46:16.529Z,6.60
2023-12-12T09:49:19.769Z,5.40
2023-12-12T09:52:25.811Z,5.83
2023-12-12T09:55:29.399Z,4.40
2023-12-12T09:58:32.537Z,5.10
2023-12-12T10:01:35.707Z,5.33
2023-12-12T10:04:38.442Z,5.07
2023-12-12T10:07:43.773Z,5.47
2023-12-12T10:10:46.295Z,6.40
2023-12-12T10:13:55.241Z,5.57
2023-12-12T10:17:05.924Z,5.50
2023-12-12T10:20:08.769Z,5.73
2023-12-12T10:23:12.693Z,5.47
2023-12-12T10:26:15.873Z,5.93
2023-12-12T10:29:21.005Z,5.97
2023-12-12T10:32:24.015Z,6.33
2023-12-12T10:35:27.019Z,6.97
2023-12-12T10:38:29.682Z,6.63
2023-12-12T10:41:32.006Z,8.47
2023-12-12T10:44:34.510Z,9.50
2023-12-12T10:47:46.296Z,12.87
2023-12-12T10:50:52.283Z,6.77
2023-12-12T10:53:56.137Z,6.30
2023-12-12T10:56:59.710Z,6.50
2023-12-12T11:00:16.568Z,6.77
2023-12-12T11:03:22.425Z,6.17
2023-12-12T11:06:25.862Z,6.57
2023-12-12T11:09:27.923Z,6.67
2023-12-12T11:12:31.256Z,6.00
2023-12-12T11:15:35.582Z,7.23
2023-12-12T11:18:39.098Z,6.00
2023-12-12T11:21:44.803Z,6.83
2023-12-12T11:25:10.308Z,5.93
2023-12-12T11:28:12.912Z,5.53
2023-12-12T11:31:25.861Z,5.50
2023-12-12T11:34:39.530Z,5.50
2023-12-12T11:37:42.459Z,5.90
2023-12-12T11:41:04.982Z,7.13
2023-12-12T11:44:07.403Z,9.20
2023-12-12T11:47:16.675Z,8.17
2023-12-12T11:50:19.406Z,8.70
2023-12-12T11:53:41.696Z,10.73
2023-12-12T11:56:44.252Z,10.90
2023-12-12T11:59:46.326Z,11.60
2023-12-12T12:02:49.643Z,8.93
2023-12-12T12:05:51.855Z,8.90
2023-12-12T12:08:54.842Z,9.60
2023-12-12T12:11:56.988Z,10.30
2023-12-12T12:15:12.603Z,10.93
2023-12-12T12:18:29.989Z,12.07
2023-12-12T12:21:32.449Z,10.47
2023-12-12T12:24:41.445Z,10.03
2023-12-12T12:27:54.035Z,10.70
2023-12-12T12:30:59.633Z,9.93
2023-12-12T12:34:02.298Z,11.07
2023-12-12T12:37:04.594Z,9.27
2023-12-12T12:40:09.022Z,9.57
2023-12-12T12:43:23.887Z,9.70
2023-12-12T12:46:26.408Z,10.40
2023-12-12T12:49:28.601Z,11.80
2023-12-12T12:52:31.498Z,10.07
2023-12-12T12:55:33.894Z,12.50
2023-12-12T12:58:36.373Z,13.80
2023-12-12T13:01:41.497Z,15.47
2023-12-12T13:04:44.452Z,18.10
2023-12-12T13:07:46.608Z,18.37
2023-12-12T13:10:51.349Z,14.67
2023-12-12T13:13:54.163Z,15.93
2023-12-12T13:16:56.842Z,14.93
2023-12-12T13:20:01.394Z,14.63
2023-12-12T13:23:04.021Z,15.40
2023-12-12T13:26:07.824Z,16.93
2023-12-12T13:29:10.531Z,18.27
2023-12-12T13:32:12.970Z,15.27
2023-12-12T13:35:27.867Z,14.07
2023-12-12T13:38:37.459Z,15.23
2023-12-12T13:41:44.689Z,14.33
2023-12-12T13:44:46.901Z,15.23
2023-12-12T13:47:50.618Z,16.70
2023-12-12T13:50:52.680Z,17.07
2023-12-12T13:53:55.172Z,14.90
2023-12-12T13:56:57.219Z,18.60
2023-12-12T13:59:59.707Z,26.03
2023-12-12T14:03:01.813Z,17.83
2023-12-12T14:06:04.722Z,16.20
2023-12-12T14:09:07.439Z,15.53
2023-12-12T14:12:10.198Z,57.23
2023-12-12T14:15:13.301Z,17.63
2023-12-12T14:18:16.144Z,13.80
2023-12-12T14:21:18.207Z,17.40
2023-12-12T14:24:20.758Z,15.93
2023-12-12T14:27:23.477Z,13.93
2023-12-12T14:30:28.705Z,19.03
2023-12-12T14:33:30.850Z,20.70
2023-12-12T14:36:33.338Z,14.43
2023-12-12T14:39:36.707Z,19.70
2023-12-12T14:42:39.365Z,19.83
2023-12-12T14:45:41.959Z,20.03
2023-12-12T14:48:44.507Z,16.00
2023-12-12T14:51:46.765Z,17.80
2023-12-12T14:54:49.102Z,17.33
2023-12-12T14:57:53.231Z,14.37
2023-12-12T15:00:55.725Z,14.20
2023-12-12T15:03:59.107Z,12.17
2023-12-12T15:07:01.553Z,10.43
2023-12-12T15:10:03.803Z,12.40
2023-12-12T15:13:06.220Z,11.70
2023-12-12T15:16:10.530Z,12.33
2023-12-12T15:19:13.100Z,11.73
2023-12-12T15:22:15.304Z,12.67
2023-12-12T15:25:24.752Z,25.87
2023-12-12T15:28:34.536Z,44.23
2023-12-12T15:31:37.263Z,27.57
2023-12-12T15:34:39.552Z,24.73
2023-12-12T15:37:47.182Z,21.33
2023-12-12T15:40:49.348Z,22.70
2023-12-12T15:43:51.773Z,22.73
2023-12-12T15:46:53.831Z,21.10
2023-12-12T15:49:56.354Z,22.40
2023-12-12T15:52:58.460Z,24.97
2023-12-12T15:56:01.038Z,23.00
2023-12-12T15:59:03.145Z,22.67
2023-12-12T16:02:05.621Z,20.13
2023-12-12T16:05:10.797Z,23.47
2023-12-12T16:08:13.523Z,138.67
2023-12-12T16:11:15.898Z,161.80
2023-12-12T16:14:18.503Z,87.93
2023-12-12T16:17:20.653Z,82.00
2023-12-12T16:20:23.222Z,96.77
2023-12-12T16:23:26.445Z,61.43
2023-12-12T16:26:28.787Z,62.10
2023-12-12T16:29:31.040Z,203.77
2023-12-12T16:32:33.687Z,493.53
2023-12-12T16:35:35.925Z,340.33
2023-12-12T16:38:38.325Z,209.53
2023-12-12T16:41:42.540Z,341.47
2023-12-12T16:44:45.229Z,486.43
2023-12-12T16:47:47.660Z,602.63
2023-12-12T16:50:50.571Z,467.10
2023-12-12T16:53:52.597Z,415.33
2023-12-12T16:56:54.963Z,84.63
2023-12-12T16:59:57.086Z,92.27
2023-12-12T17:02:59.546Z,83.93
2023-12-12T17:06:04.616Z,79.17
2023-12-12T17:09:09.603Z,81.93
2023-12-12T17:12:11.626Z,62.13
2023-12-12T17:15:14.005Z,28.00
2023-12-12T17:18:19.542Z,24.90
2023-12-12T17:21:23.103Z,21.67
2023-12-12T17:24:25.418Z,18.63
2023-12-12T17:27:27.825Z,114.43
2023-12-12T17:30:29.864Z,111.17
2023-12-12T17:33:32.322Z,72.13
2023-12-12T17:36:34.377Z,83.73
2023-12-12T17:39:36.728Z,80.70
2023-12-12T17:42:40.171Z,33.97
2023-12-12T17:45:42.870Z,36.33
2023-12-12T17:48:45.283Z,50.20
2023-12-12T17:51:47.708Z,54.97
2023-12-12T17:54:49.709Z,72.80
2023-12-12T17:57:52.140Z,77.87
2023-12-12T18:00:54.444Z,72.90
2023-12-12T18:03:56.834Z,62.07
2023-12-12T18:06:59.583Z,44.03
2023-12-12T18:10:01.955Z,43.50
2023-12-12T18:13:04.470Z,42.30
2023-12-12T18:16:07.228Z,38.70
2023-12-12T18:19:09.507Z,54.23
2023-12-12T18:22:11.922Z,45.83
2023-12-12T18:25:14.293Z,34.07
2023-12-12T18:28:16.700Z,33.77
2023-12-12T18:31:20.728Z,31.60
2023-12-12T18:34:23.227Z,31.10
2023-12-12T18:37:26.571Z,31.73
2023-12-12T18:40:29.928Z,29.57
2023-12-12T18:43:32.015Z,29.73
2023-12-12T18:46:34.503Z,29.90
2023-12-12T18:49:36.746Z,33.27
2023-12-12T18:52:39.278Z,41.90
2023-12-12T18:55:41.842Z,29.60
2023-12-12T18:58:44.296Z,28.00
2023-12-12T19:01:52.278Z,48.23
2023-12-12T19:04:56.066Z,36.70
2023-12-12T19:08:00.615Z,36.50
2023-12-12T19:11:03.719Z,35.40
2023-12-12T19:14:06.918Z,32.53
2023-12-12T19:17:09.911Z,28.57
2023-12-12T19:20:12.974Z,30.67
2023-12-12T19:23:15.459Z,30.60
2023-12-12T19:26:17.719Z,54.73
2023-12-12T19:29:20.935Z,40.90
2023-12-12T19:32:25.708Z,38.07
2023-12-12T19:35:28.144Z,31.47
2023-12-12T19:38:30.990Z,38.40
2023-12-12T19:41:39.017Z,32.07
2023-12-12T19:44:41.072Z,30.03
2023-12-12T19:47:43.396Z,33.03
2023-12-12T19:50:45.482Z,37.43
2023-12-12T19:53:47.793Z,45.77
2023-12-12T19:56:50.308Z,51.57
2023-12-12T19:59:52.679Z,53.10
2023-12-12T20:02:54.782Z,57.00
2023-12-12T20:05:57.117Z,56.90
2023-12-12T20:08:59.241Z,55.97
2023-12-12T20:12:01.800Z,56.73
2023-12-12T20:15:04.359Z,69.20
2023-12-12T20:18:06.778Z,71.23
2023-12-12T20:21:08.867Z,68.30
2023-12-12T20:24:11.277Z,71.87
2023-12-12T20:27:13.460Z,72.30
2023-12-12T20:30:17.149Z,76.23
2023-12-12T20:33:19.538Z,66.90
2023-12-12T20:36:22.300Z,65.73
2023-12-12T20:39:25.626Z,65.37
2023-12-12T20:42:28.010Z,66.47
2023-12-12T20:45:30.150Z,64.73
2023-12-12T20:48:32.588Z,62.97
2023-12-12T20:51:38.160Z,62.53
2023-12-12T20:54:40.914Z,82.30
2023-12-12T20:57:43.582Z,72.87
2023-12-12T21:00:46.028Z,69.70
2023-12-12T21:03:48.934Z,57.60
2023-12-12T21:06:51.446Z,59.77
2023-12-12T21:09:53.571Z,62.23
2023-12-12T21:12:55.979Z,57.67
2023-12-12T21:15:58.066Z,55.37
2023-12-12T21:19:02.079Z,61.20
2023-12-12T21:22:04.842Z,58.50
2023-12-12T21:25:08.523Z,51.67
2023-12-12T21:28:10.680Z,61.70
2023-12-12T21:31:13.076Z,58.17
2023-12-12T21:34:15.884Z,56.73
2023-12-12T21:37:18.443Z,58.43
2023-12-12T21:40:20.558Z,57.40
2023-12-12T21:43:22.902Z,56.73
2023-12-12T21:46:25.542Z,57.47
2023-12-12T21:49:28.905Z,59.17
2023-12-12T21:52:31.263Z,59.17
2023-12-12T21:55:36.289Z,61.93
2023-12-12T21:58:38.487Z,60.27
2023-12-12T22:01:41.117Z,63.77
2023-12-12T22:04:43.311Z,64.40
2023-12-12T22:07:45.667Z,68.17
2023-12-12T22:10:47.910Z,71.17
2023-12-12T22:13:50.730Z,72.03
2023-12-12T22:16:52.925Z,70.90
2023-12-12T22:20:02.457Z,67.77
2023-12-12T22:23:08.835Z,65.27
2023-12-12T22:26:11.871Z,61.47
2023-12-12T22:29:13.889Z,60.57
2023-12-12T22:32:16.323Z,57.33
2023-12-12T22:35:18.438Z,62.83
2023-12-12T22:38:20.771Z,63.40
2023-12-12T22:41:24.149Z,62.23
2023-12-12T22:44:26.545Z,63.83
2023-12-12T22:47:28.585Z,62.20
2023-12-12T22:50:30.922Z,61.43
2023-12-12T22:53:32.962Z,66.27
2023-12-12T22:56:35.272Z,65.23
2023-12-12T22:59:37.318Z,60.53
2023-12-12T23:02:39.617Z,67.10
2023-12-12T23:05:41.759Z,62.10
2023-12-12T23:08:44.138Z,60.30
2023-12-12T23:11:46.746Z,64.90
2023-12-12T23:14:49.279Z,73.10
2023-12-12T23:17:51.328Z,80.30
2023-12-12T23:20:56.308Z,85.13
2023-12-12T23:23:59.060Z,102.00
2023-12-12T23:27:01.371Z,94.30
2023-12-12T23:30:03.704Z,86.87
2023-12-12T23:33:06.092Z,82.37
2023-12-12T23:36:08.668Z,79.30
2023-12-12T23:39:11.080Z,70.60
2023-12-12T23:42:13.374Z,61.60
2023-12-12T23:45:22.174Z,71.93
2023-12-12T23:48:27.632Z,67.40
2023-12-12T23:51:29.945Z,68.07
2023-12-12T23:54:35.280Z,59.97
2023-12-12T23:57:37.763Z,59.67
